Time;durP1;ratioP1;P1;durP2;ratioP2;P2;SDS_P1;SDS_P2;PMS_P1;PMS_P2;Temp;Humidity;BMP_temperature;BMP_pressure;BME280_temperature;BME280_humidity;BME280_pressure;Samples;Min_cycle;Max_cycle;Signal;HPM_P1;HPM_P2
2021/08/23 00:01:20;;;;;;;4.97;3.63;;;;;;;;;;5055100;28;20203;-74
2021/08/23 00:03:45;;;;;;;6.10;4.17;;;;;;;;;;5054603;28;20653;-74
2021/08/23 00:06:10;;;;;;;7.23;3.93;;;;;;;;;;5043763;28;20187;-74
2021/08/23 00:08:35;;;;;;;5.87;3.43;;;;;;;;;;5058971;28;20195;-74
2021/08/23 00:11:01;;;;;;;6.10;3.60;;;;;;;;;;5055541;28;20186;-74
2021/08/23 00:13:26;;;;;;;5.30;3.57;;;;;;;;;;5053808;28;20678;-74
2021/08/23 00:15:55;;;;;;;4.40;3.27;;;;;;;;;;5053964;28;20558;-74
2021/08/23 00:18:21;;;;;;;4.73;3.20;;;;;;;;;;5055492;28;20200;-74
2021/08/23 00:20:57;;;;;;;4.50;3.27;;;;;;;;;;5052500;28;20498;-74
2021/08/23 00:23:25;;;;;;;4.67;3.60;;;;;;;;;;5056896;28;20194;-74
2021/08/23 00:25:51;;;;;;;4.00;2.83;;;;;;;;;;5055792;28;20437;-74
2021/08/23 00:28:16;;;;;;;3.73;2.97;;;;;;;;;;5052419;28;21024;-74
2021/08/23 00:30:42;;;;;;;6.80;3.50;;;;;;;;;;5058535;28;20672;-74
2021/08/23 00:33:07;;;;;;;5.27;2.90;;;;;;;;;;5052743;28;20188;-74
2021/08/23 00:35:32;;;;;;;4.90;3.00;;;;;;;;;;5050201;28;20268;-74
2021/08/23 00:38:00;;;;;;;7.30;3.80;;;;;;;;;;5050800;28;20203;-74
2021/08/23 00:40:26;;;;;;;4.97;3.10;;;;;;;;;;5055361;28;20194;-74
2021/08/23 00:42:52;;;;;;;4.63;3.50;;;;;;;;;;5056735;28;20433;-74
2021/08/23 00:45:18;;;;;;;5.40;3.67;;;;;;;;;;5053087;28;20189;-74
2021/08/23 00:47:43;;;;;;;7.03;4.47;;;;;;;;;;5047716;28;20457;-74
2021/08/23 00:50:08;;;;;;;4.07;3.67;;;;;;;;;;5051524;28;20303;-75
2021/08/23 00:52:34;;;;;;;5.93;3.07;;;;;;;;;;5055918;28;20269;-75
2021/08/23 00:54:59;;;;;;;3.90;3.20;;;;;;;;;;5052101;28;20180;-74
2021/08/23 00:57:24;;;;;;;4.27;3.10;;;;;;;;;;5053359;28;20191;-74
2021/08/23 00:59:52;;;;;;;3.20;2.90;;;;;;;;;;5049005;28;20219;-74
2021/08/23 01:02:26;;;;;;;4.07;3.33;;;;;;;;;;5053800;28;20218;-74
2021/08/23 01:04:58;;;;;;;3.60;2.60;;;;;;;;;;5053326;28;20430;-74
2021/08/23 01:07:26;;;;;;;4.47;3.20;;;;;;;;;;5053945;28;20536;-75
2021/08/23 01:10:06;;;;;;;3.73;3.30;;;;;;;;;;5053463;28;20469;-75
2021/08/23 01:12:31;;;;;;;7.77;3.63;;;;;;;;;;5052618;28;20413;-75
2021/08/23 01:14:57;;;;;;;4.57;3.00;;;;;;;;;;5052726;28;20418;-75
2021/08/23 01:17:23;;;;;;;4.20;3.80;;;;;;;;;;5053200;28;20266;-74
2021/08/23 01:19:51;;;;;;;3.30;3.00;;;;;;;;;;5053977;28;20430;-75
2021/08/23 01:22:17;;;;;;;5.00;3.10;;;;;;;;;;5051545;28;20275;-75
2021/08/23 01:24:44;;;;;;;4.93;3.43;;;;;;;;;;5051836;28;20433;-75
2021/08/23 01:27:10;;;;;;;4.13;2.83;;;;;;;;;;5050556;28;20601;-76
2021/08/23 01:29:35;;;;;;;3.30;2.90;;;;;;;;;;5054519;28;20527;-74
2021/08/23 01:32:06;;;;;;;3.13;2.83;;;;;;;;;;5048890;28;20434;-75
2021/08/23 01:34:32;;;;;;;5.50;3.17;;;;;;;;;;5051247;28;20540;-75
2021/08/23 01:36:57;;;;;;;2.93;2.60;;;;;;;;;;5050573;28;20477;-75
2021/08/23 01:39:22;;;;;;;3.70;3.27;;;;;;;;;;5049770;28;20469;-75
2021/08/23 01:41:48;;;;;;;3.70;2.90;;;;;;;;;;5052532;28;20207;-75
2021/08/23 01:44:13;;;;;;;6.33;3.20;;;;;;;;;;5047691;28;20207;-75
2021/08/23 01:46:39;;;;;;;5.60;3.40;;;;;;;;;;5047526;28;20667;-75
2021/08/23 01:49:06;;;;;;;3.90;3.27;;;;;;;;;;5056071;28;20207;-75
2021/08/23 01:51:31;;;;;;;4.50;3.13;;;;;;;;;;5047394;28;20172;-75
2021/08/23 01:54:01;;;;;;;3.87;3.03;;;;;;;;;;5052795;28;20433;-75
2021/08/23 01:56:26;;;;;;;7.50;3.67;;;;;;;;;;5051716;28;20563;-75
2021/08/23 01:58:52;;;;;;;11.33;3.70;;;;;;;;;;5052918;28;20442;-75
2021/08/23 02:01:17;;;;;;;4.30;3.00;;;;;;;;;;5053632;28;20195;-75
2021/08/23 02:03:42;;;;;;;2.77;2.57;;;;;;;;;;5051518;28;20603;-75
2021/08/23 02:06:08;;;;;;;3.20;2.90;;;;;;;;;;5049285;28;20198;-75
2021/08/23 02:08:33;;;;;;;3.87;2.80;;;;;;;;;;5054183;28;20180;-75
2021/08/23 02:10:58;;;;;;;5.17;3.80;;;;;;;;;;5051112;28;20191;-75
2021/08/23 02:13:24;;;;;;;4.67;3.13;;;;;;;;;;5054524;28;20232;-75
2021/08/23 02:15:49;;;;;;;4.50;2.80;;;;;;;;;;5053012;28;20207;-75
2021/08/23 02:18:14;;;;;;;5.93;2.77;;;;;;;;;;5049635;28;20246;-75
2021/08/23 02:20:39;;;;;;;3.17;2.93;;;;;;;;;;5051289;28;20218;-75
2021/08/23 02:23:05;;;;;;;3.83;3.10;;;;;;;;;;5048335;28;20184;-74
2021/08/23 02:25:30;;;;;;;4.70;3.00;;;;;;;;;;5050278;28;20320;-75
2021/08/23 02:27:56;;;;;;;8.03;3.07;;;;;;;;;;5053616;28;20210;-75
2021/08/23 02:30:21;;;;;;;4.73;2.80;;;;;;;;;;5048414;28;20293;-74
2021/08/23 02:32:47;;;;;;;7.30;4.07;;;;;;;;;;5052077;28;20267;-74
2021/08/23 02:35:12;;;;;;;4.10;2.70;;;;;;;;;;5047502;28;20259;-75
2021/08/23 02:37:38;;;;;;;4.60;3.40;;;;;;;;;;5051374;28;20207;-75
2021/08/23 02:40:06;;;;;;;4.57;3.10;;;;;;;;;;5050958;28;20187;-75
2021/08/23 02:42:31;;;;;;;2.93;2.60;;;;;;;;;;5050693;28;20191;-75
2021/08/23 02:44:57;;;;;;;6.00;3.07;;;;;;;;;;5051230;28;20449;-75
2021/08/23 02:47:22;;;;;;;3.20;2.70;;;;;;;;;;5051227;28;20299;-75
2021/08/23 02:49:47;;;;;;;4.33;2.73;;;;;;;;;;5048874;28;20207;-74
2021/08/23 02:52:12;;;;;;;5.83;3.37;;;;;;;;;;5051987;28;20186;-75
2021/08/23 02:54:38;;;;;;;4.70;3.33;;;;;;;;;;5047683;28;20186;-75
2021/08/23 02:57:03;;;;;;;3.27;2.93;;;;;;;;;;5049517;28;22716;-75
2021/08/23 02:59:28;;;;;;;3.87;2.50;;;;;;;;;;5049376;28;20678;-75
2021/08/23 03:01:53;;;;;;;4.97;3.07;;;;;;;;;;5047220;28;20705;-75
2021/08/23 03:04:19;;;;;;;4.67;3.07;;;;;;;;;;5051224;28;21059;-75
2021/08/23 03:06:44;;;;;;;3.40;3.10;;;;;;;;;;5049478;28;20552;-75
2021/08/23 03:09:09;;;;;;;6.80;2.83;;;;;;;;;;5048558;28;20290;-75
2021/08/23 03:11:34;;;;;;;6.13;3.37;;;;;;;;;;5047640;28;20219;-75
2021/08/23 03:14:00;;;;;;;5.87;2.53;;;;;;;;;;5049197;28;20214;-75
2021/08/23 03:16:25;;;;;;;3.93;3.20;;;;;;;;;;5050045;28;20199;-75
2021/08/23 03:18:50;;;;;;;4.10;2.80;;;;;;;;;;5051542;28;20184;-75
2021/08/23 03:21:15;;;;;;;5.07;3.20;;;;;;;;;;5049597;28;20180;-75
2021/08/23 03:23:40;;;;;;;3.73;3.33;;;;;;;;;;5046963;28;20175;-75
2021/08/23 03:26:06;;;;;;;5.23;3.47;;;;;;;;;;5048643;28;20711;-75
2021/08/23 03:28:32;;;;;;;4.53;3.00;;;;;;;;;;5047905;28;20179;-75
2021/08/23 03:31:00;;;;;;;3.17;2.47;;;;;;;;;;5047701;28;20210;-75
2021/08/23 03:33:25;;;;;;;4.43;2.80;;;;;;;;;;5054910;28;20433;-75
2021/08/23 03:35:51;;;;;;;3.83;2.70;;;;;;;;;;5049494;28;20945;-75
2021/08/23 03:38:16;;;;;;;5.87;3.30;;;;;;;;;;5049866;28;20636;-75
2021/08/23 03:40:41;;;;;;;3.80;2.37;;;;;;;;;;5043773;28;20324;-75
2021/08/23 03:43:06;;;;;;;6.30;2.33;;;;;;;;;;5050169;28;20627;-75
2021/08/23 03:45:32;;;;;;;3.67;2.53;;;;;;;;;;5048977;28;20189;-75
2021/08/23 03:47:57;;;;;;;4.40;2.70;;;;;;;;;;5047563;28;20203;-74
2021/08/23 03:50:22;;;;;;;3.47;2.40;;;;;;;;;;5048632;28;20217;-75
2021/08/23 03:52:48;;;;;;;3.33;2.10;;;;;;;;;;5050416;28;20179;-74
2021/08/23 03:55:13;;;;;;;3.27;2.60;;;;;;;;;;5047517;28;20180;-75
2021/08/23 03:57:38;;;;;;;7.80;2.00;;;;;;;;;;5049329;28;20208;-75
2021/08/23 04:00:04;;;;;;;4.67;2.53;;;;;;;;;;5049008;28;20195;-75
2021/08/23 04:02:30;;;;;;;5.80;2.97;;;;;;;;;;5046754;28;20199;-75
2021/08/23 04:04:55;;;;;;;4.53;3.03;;;;;;;;;;5051615;28;20956;-75
2021/08/23 04:07:20;;;;;;;4.00;2.30;;;;;;;;;;5046864;28;20298;-74
2021/08/23 04:09:48;;;;;;;6.43;2.30;;;;;;;;;;5052282;28;20218;-75
2021/08/23 04:12:13;;;;;;;5.57;2.60;;;;;;;;;;5050641;28;20235;-75
2021/08/23 04:14:39;;;;;;;5.33;2.17;;;;;;;;;;5049307;28;20442;-74
2021/08/23 04:17:04;;;;;;;6.27;2.37;;;;;;;;;;5053123;28;20199;-75
2021/08/23 04:19:30;;;;;;;4.80;2.50;;;;;;;;;;5049047;28;20659;-75
2021/08/23 04:21:55;;;;;;;5.53;2.60;;;;;;;;;;5049494;28;20620;-74
2021/08/23 04:24:20;;;;;;;5.87;2.60;;;;;;;;;;5048674;28;20206;-75
2021/08/23 04:26:45;;;;;;;4.20;2.73;;;;;;;;;;5049303;28;20281;-75
2021/08/23 04:29:11;;;;;;;3.23;2.53;;;;;;;;;;5054355;28;20198;-75
2021/08/23 04:31:36;;;;;;;3.90;2.37;;;;;;;;;;5051089;28;20662;-75
2021/08/23 04:34:01;;;;;;;2.97;2.30;;;;;;;;;;5051086;28;20278;-75
2021/08/23 04:36:26;;;;;;;5.60;2.20;;;;;;;;;;5053150;28;20214;-74
2021/08/23 04:38:52;;;;;;;2.87;2.43;;;;;;;;;;5050366;28;20187;-75
2021/08/23 04:41:17;;;;;;;3.90;2.33;;;;;;;;;;5054611;28;20176;-75
2021/08/23 04:43:42;;;;;;;4.57;2.77;;;;;;;;;;5051679;28;20184;-75
2021/08/23 04:46:07;;;;;;;6.30;2.93;;;;;;;;;;5052396;28;20247;-74
2021/08/23 04:48:33;;;;;;;5.47;2.50;;;;;;;;;;5053104;28;20291;-75
2021/08/23 04:50:58;;;;;;;3.47;2.00;;;;;;;;;;5054813;28;20293;-75
2021/08/23 04:53:23;;;;;;;6.97;2.50;;;;;;;;;;5052454;28;20269;-75
2021/08/23 04:55:48;;;;;;;4.10;2.17;;;;;;;;;;5052988;28;20179;-75
2021/08/23 04:58:14;;;;;;;4.03;2.30;;;;;;;;;;5049415;28;20195;-75
2021/08/23 05:00:39;;;;;;;4.33;2.57;;;;;;;;;;5054483;28;20551;-75
2021/08/23 05:03:06;;;;;;;5.30;2.77;;;;;;;;;;5053649;28;20278;-75
2021/08/23 05:05:31;;;;;;;3.87;2.60;;;;;;;;;;5051818;28;20184;-75
2021/08/23 05:07:56;;;;;;;2.87;2.27;;;;;;;;;;5052895;28;20464;-74
2021/08/23 05:10:21;;;;;;;4.30;2.20;;;;;;;;;;5050520;28;20265;-75
2021/08/23 05:12:47;;;;;;;4.53;2.63;;;;;;;;;;5054824;28;20184;-75
2021/08/23 05:15:12;;;;;;;6.50;2.73;;;;;;;;;;5052902;28;20617;-74
2021/08/23 05:17:37;;;;;;;5.20;3.00;;;;;;;;;;5048528;28;20208;-75
2021/08/23 05:20:03;;;;;;;6.30;2.03;;;;;;;;;;5053908;28;20197;-74
2021/08/23 05:22:28;;;;;;;5.27;2.10;;;;;;;;;;5055606;28;20183;-75
2021/08/23 05:24:53;;;;;;;4.17;2.60;;;;;;;;;;5043010;28;20188;-75
2021/08/23 05:27:19;;;;;;;5.77;2.73;;;;;;;;;;5050865;28;20207;-75
2021/08/23 05:29:44;;;;;;;4.27;2.40;;;;;;;;;;5048411;28;20207;-76
2021/08/23 05:32:09;;;;;;;3.80;2.40;;;;;;;;;;5038200;28;20196;-74
2021/08/23 05:34:34;;;;;;;3.83;2.27;;;;;;;;;;5051082;28;20183;-76
2021/08/23 05:37:00;;;;;;;3.80;2.37;;;;;;;;;;5047604;28;20250;-76
2021/08/23 05:39:25;;;;;;;5.30;2.43;;;;;;;;;;5052729;28;20195;-75
2021/08/23 05:41:50;;;;;;;4.00;2.20;;;;;;;;;;5052826;28;20187;-75
2021/08/23 05:44:15;;;;;;;5.70;2.20;;;;;;;;;;5050570;28;20736;-75
2021/08/23 05:46:41;;;;;;;3.43;2.23;;;;;;;;;;5052285;28;20207;-75
2021/08/23 05:49:06;;;;;;;3.67;2.40;;;;;;;;;;5057517;28;20211;-75
2021/08/23 05:51:31;;;;;;;7.13;2.40;;;;;;;;;;5048087;28;20190;-75
2021/08/23 05:53:56;;;;;;;3.23;1.83;;;;;;;;;;5054912;28;20184;-75
2021/08/23 05:56:21;;;;;;;2.07;1.90;;;;;;;;;;5056200;28;20200;-75
2021/08/23 05:58:47;;;;;;;2.93;2.10;;;;;;;;;;5052338;28;20663;-75
2021/08/23 06:01:12;;;;;;;3.50;1.60;;;;;;;;;;5051940;28;20187;-75
2021/08/23 06:03:37;;;;;;;3.83;2.37;;;;;;;;;;5050977;28;20226;-75
2021/08/23 06:06:03;;;;;;;5.60;2.27;;;;;;;;;;5054082;28;20546;-75
2021/08/23 06:08:28;;;;;;;4.07;2.40;;;;;;;;;;5051608;28;20176;-75
2021/08/23 06:10:54;;;;;;;2.97;1.80;;;;;;;;;;5051320;28;20470;-75
2021/08/23 06:13:19;;;;;;;1.63;1.50;;;;;;;;;;5051127;28;20187;-75
2021/08/23 06:15:44;;;;;;;5.33;2.20;;;;;;;;;;5049987;28;20262;-76
2021/08/23 06:18:09;;;;;;;4.20;1.60;;;;;;;;;;5054005;28;20283;-75
2021/08/23 06:20:35;;;;;;;3.97;1.57;;;;;;;;;;5054447;28;20201;-75
2021/08/23 06:23:00;;;;;;;10.43;1.97;;;;;;;;;;5050976;28;20267;-75
2021/08/23 06:25:25;;;;;;;2.20;1.30;;;;;;;;;;5050744;28;20233;-75
2021/08/23 06:27:50;;;;;;;5.23;1.73;;;;;;;;;;5051122;28;20204;-75
2021/08/23 06:30:16;;;;;;;3.97;1.77;;;;;;;;;;5052007;28;20204;-75
2021/08/23 06:32:41;;;;;;;1.90;1.43;;;;;;;;;;5048916;28;20650;-75
2021/08/23 06:35:06;;;;;;;3.80;1.80;;;;;;;;;;5048650;28;20226;-75
2021/08/23 06:37:31;;;;;;;4.80;2.57;;;;;;;;;;5051530;28;20229;-75
2021/08/23 06:39:58;;;;;;;1.77;1.20;;;;;;;;;;5050622;28;20175;-75
2021/08/23 06:42:24;;;;;;;3.47;1.50;;;;;;;;;;5048875;28;20191;-75
2021/08/23 06:44:49;;;;;;;6.47;1.87;;;;;;;;;;5047144;28;20449;-75
2021/08/23 06:47:16;;;;;;;2.90;1.80;;;;;;;;;;5047694;28;20607;-75
2021/08/23 06:49:41;;;;;;;2.87;1.43;;;;;;;;;;5049968;28;20216;-75
2021/08/23 06:52:07;;;;;;;4.00;1.73;;;;;;;;;;5050623;28;20948;-75
2021/08/23 06:54:32;;;;;;;2.30;1.27;;;;;;;;;;5052130;28;20217;-75
2021/08/23 06:56:57;;;;;;;2.53;1.63;;;;;;;;;;5051374;28;20234;-75
2021/08/23 06:59:25;;;;;;;4.57;1.47;;;;;;;;;;5051726;28;20194;-75
2021/08/23 07:01:50;;;;;;;2.30;1.50;;;;;;;;;;5048755;28;20203;-75
2021/08/23 07:04:15;;;;;;;4.93;1.17;;;;;;;;;;5048425;28;20434;-75
2021/08/23 07:06:40;;;;;;;2.80;1.57;;;;;;;;;;5046446;28;20206;-75
2021/08/23 07:09:06;;;;;;;2.50;1.40;;;;;;;;;;5053582;28;20200;-75
2021/08/23 07:11:31;;;;;;;5.10;1.17;;;;;;;;;;5044310;28;20180;-75
2021/08/23 07:13:56;;;;;;;1.77;1.33;;;;;;;;;;5045656;28;20704;-77
2021/08/23 07:16:21;;;;;;;2.60;1.30;;;;;;;;;;5050258;28;20207;-75
2021/08/23 07:18:47;;;;;;;2.57;1.17;;;;;;;;;;5051915;28;20184;-75
2021/08/23 07:21:12;;;;;;;2.20;1.20;;;;;;;;;;5050582;28;20197;-75
2021/08/23 07:23:37;;;;;;;1.20;0.90;;;;;;;;;;5050456;28;20189;-75
2021/08/23 07:26:02;;;;;;;1.57;1.17;;;;;;;;;;5053217;28;20183;-74
2021/08/23 07:28:28;;;;;;;3.37;1.37;;;;;;;;;;5048345;28;20519;-75
2021/08/23 07:30:53;;;;;;;2.90;1.20;;;;;;;;;;5052820;28;20203;-75
2021/08/23 07:33:18;;;;;;;2.13;1.30;;;;;;;;;;5050495;28;20262;-75
2021/08/23 07:35:43;;;;;;;4.37;1.17;;;;;;;;;;5057892;28;20216;-75
2021/08/23 07:38:09;;;;;;;2.00;1.10;;;;;;;;;;5051425;28;20218;-75
2021/08/23 07:40:34;;;;;;;2.43;1.17;;;;;;;;;;5049706;28;20180;-75
2021/08/23 07:43:00;;;;;;;2.70;1.10;;;;;;;;;;5048432;28;20188;-74
2021/08/23 07:45:25;;;;;;;1.13;1.00;;;;;;;;;;5049794;28;20628;-75
2021/08/23 07:47:51;;;;;;;3.20;1.10;;;;;;;;;;5048430;28;21017;-75
2021/08/23 07:50:17;;;;;;;2.27;1.30;;;;;;;;;;5049575;28;20854;-74
2021/08/23 07:52:42;;;;;;;2.50;1.00;;;;;;;;;;5049011;28;20250;-75
2021/08/23 07:55:08;;;;;;;2.70;1.27;;;;;;;;;;5049135;28;20242;-75
2021/08/23 07:57:33;;;;;;;2.60;1.23;;;;;;;;;;5043771;28;20230;-75
2021/08/23 08:00:02;;;;;;;1.30;1.20;;;;;;;;;;5045268;28;20654;-75
2021/08/23 08:02:27;;;;;;;1.30;1.10;;;;;;;;;;5056062;28;20191;-75
2021/08/23 08:04:52;;;;;;;1.80;1.00;;;;;;;;;;5053459;28;20429;-75
2021/08/23 08:07:17;;;;;;;1.40;1.13;;;;;;;;;;5051939;28;20207;-75
2021/08/23 08:09:43;;;;;;;1.40;1.00;;;;;;;;;;5049023;28;20206;-75
2021/08/23 08:12:08;;;;;;;2.30;1.17;;;;;;;;;;5056406;28;20167;-75
2021/08/23 08:14:33;;;;;;;2.47;1.07;;;;;;;;;;5059677;28;20290;-75
2021/08/23 08:16:58;;;;;;;2.87;1.47;;;;;;;;;;5056886;28;20198;-75
2021/08/23 08:19:24;;;;;;;1.30;1.10;;;;;;;;;;5053619;28;20191;-74
2021/08/23 08:21:49;;;;;;;1.37;1.20;;;;;;;;;;5057422;28;20182;-74
2021/08/23 08:24:15;;;;;;;1.33;1.00;;;;;;;;;;5053967;28;20281;-75
2021/08/23 08:26:40;;;;;;;1.53;0.80;;;;;;;;;;5055116;28;20199;-74
2021/08/23 08:29:05;;;;;;;1.37;0.87;;;;;;;;;;5052522;28;20183;-74
2021/08/23 08:31:30;;;;;;;1.10;1.00;;;;;;;;;;5051046;28;20273;-74
2021/08/23 08:33:56;;;;;;;2.03;0.80;;;;;;;;;;5051422;28;20610;-75
2021/08/23 08:36:21;;;;;;;1.10;1.00;;;;;;;;;;5053472;28;20206;-75
2021/08/23 08:38:48;;;;;;;2.77;0.93;;;;;;;;;;5050595;28;20176;-75
2021/08/23 08:41:14;;;;;;;0.83;0.70;;;;;;;;;;5050185;28;20241;-75
2021/08/23 08:43:39;;;;;;;1.20;1.03;;;;;;;;;;5051979;28;20882;-75
2021/08/23 08:46:05;;;;;;;1.13;1.00;;;;;;;;;;5053141;28;21103;-74
2021/08/23 08:48:30;;;;;;;1.13;1.03;;;;;;;;;;5051419;28;20175;-75
2021/08/23 08:50:55;;;;;;;1.47;1.00;;;;;;;;;;5048297;28;20210;-75
2021/08/23 08:53:20;;;;;;;1.00;0.90;;;;;;;;;;5052121;28;20191;-75
2021/08/23 08:55:46;;;;;;;1.90;1.10;;;;;;;;;;5056105;28;20175;-75
2021/08/23 08:58:11;;;;;;;2.00;1.07;;;;;;;;;;5055705;28;20897;-75
2021/08/23 09:00:38;;;;;;;2.83;1.27;;;;;;;;;;5055918;28;20179;-74
2021/08/23 09:03:04;;;;;;;1.13;1.03;;;;;;;;;;5054364;28;20175;-75
2021/08/23 09:05:39;;;;;;;1.10;1.00;;;;;;;;;;5050769;28;20430;-75
2021/08/23 09:08:05;;;;;;;2.40;1.37;;;;;;;;;;5050908;28;20195;-75
2021/08/23 09:10:31;;;;;;;4.17;1.03;;;;;;;;;;5051531;28;20464;-75
2021/08/23 09:13:04;;;;;;;2.20;0.97;;;;;;;;;;5054488;28;20180;-75
2021/08/23 09:15:29;;;;;;;1.90;1.00;;;;;;;;;;5053576;28;20425;-75
2021/08/23 09:18:05;;;;;;;1.20;1.10;;;;;;;;;;5049683;28;20476;-75
2021/08/23 09:20:30;;;;;;;1.63;1.33;;;;;;;;;;5056067;28;20198;-75
2021/08/23 09:23:06;;;;;;;1.40;1.30;;;;;;;;;;5056071;28;20462;-75
2021/08/23 09:25:31;;;;;;;2.10;1.27;;;;;;;;;;5051227;28;20179;-75
2021/08/23 09:28:04;;;;;;;1.37;1.10;;;;;;;;;;5050810;28;20465;-75
2021/08/23 09:30:29;;;;;;;2.00;1.40;;;;;;;;;;5051075;28;20706;-75
2021/08/23 09:32:57;;;;;;;1.40;1.03;;;;;;;;;;5050667;28;20426;-75
2021/08/23 09:35:26;;;;;;;1.43;1.30;;;;;;;;;;5050740;28;20709;-75
2021/08/23 09:37:51;;;;;;;1.90;1.30;;;;;;;;;;5047309;28;20446;-75
2021/08/23 09:40:18;;;;;;;2.63;1.20;;;;;;;;;;5049833;28;20437;-75
2021/08/23 09:42:43;;;;;;;1.40;1.30;;;;;;;;;;5047512;28;20195;-75
2021/08/23 09:45:16;;;;;;;3.20;1.53;;;;;;;;;;5048569;28;20438;-75
2021/08/23 09:47:41;;;;;;;1.57;0.97;;;;;;;;;;5050713;28;20234;-75
2021/08/23 09:50:13;;;;;;;2.53;1.47;;;;;;;;;;5055330;28;20582;-76
2021/08/23 09:52:38;;;;;;;1.53;1.10;;;;;;;;;;5047357;28;20167;-75
2021/08/23 09:55:06;;;;;;;2.03;1.17;;;;;;;;;;5050400;28;20436;-76
2021/08/23 09:57:34;;;;;;;1.10;1.00;;;;;;;;;;5052323;28;20199;-75
2021/08/23 10:00:00;;;;;;;5.00;1.23;;;;;;;;;;5053120;28;20417;-75
2021/08/23 10:02:26;;;;;;;1.20;1.10;;;;;;;;;;5042645;28;20446;-75
2021/08/23 10:04:51;;;;;;;1.40;1.07;;;;;;;;;;5047706;28;20215;-76
2021/08/23 10:07:16;;;;;;;1.97;1.20;;;;;;;;;;5048832;28;20880;-75
2021/08/23 10:09:43;;;;;;;1.57;1.27;;;;;;;;;;5051378;28;20199;-76
2021/08/23 10:12:12;;;;;;;1.07;0.97;;;;;;;;;;5052613;28;20172;-75
2021/08/23 10:14:37;;;;;;;2.40;1.27;;;;;;;;;;5055202;28;20449;-75
2021/08/23 10:17:03;;;;;;;1.13;1.00;;;;;;;;;;5050355;28;21082;-75
2021/08/23 10:19:28;;;;;;;1.80;0.93;;;;;;;;;;5051575;28;20255;-75
2021/08/23 10:21:54;;;;;;;1.37;1.20;;;;;;;;;;5051660;28;20289;-75
2021/08/23 10:24:21;;;;;;;1.90;1.40;;;;;;;;;;5052676;28;20279;-75
2021/08/23 10:26:46;;;;;;;2.10;1.20;;;;;;;;;;5054438;28;20199;-75
2021/08/23 10:29:15;;;;;;;1.33;1.23;;;;;;;;;;5053514;28;20469;-75
2021/08/23 10:31:42;;;;;;;2.50;1.20;;;;;;;;;;5053684;28;20188;-74
2021/08/23 10:34:20;;;;;;;1.33;1.20;;;;;;;;;;5056087;28;20504;-75
2021/08/23 10:36:47;;;;;;;1.60;1.20;;;;;;;;;;5052014;28;20507;-76
2021/08/23 10:39:22;;;;;;;2.23;1.33;;;;;;;;;;5051211;28;20496;-75
2021/08/23 10:41:49;;;;;;;1.33;1.00;;;;;;;;;;5055895;28;20417;-76
2021/08/23 10:44:23;;;;;;;2.87;1.03;;;;;;;;;;5055589;28;20414;-76
2021/08/23 10:46:48;;;;;;;1.20;0.90;;;;;;;;;;5050380;28;20449;-75
2021/08/23 10:49:15;;;;;;;1.30;1.10;;;;;;;;;;5055417;28;20468;-75
2021/08/23 10:51:41;;;;;;;2.13;0.97;;;;;;;;;;5053554;28;20195;-75
2021/08/23 10:54:25;;;;;;;1.57;1.20;;;;;;;;;;5052328;28;20445;-75
2021/08/23 10:56:59;;;;;;;1.70;1.20;;;;;;;;;;5053488;28;20449;-75
2021/08/23 10:59:25;;;;;;;1.40;1.30;;;;;;;;;;5052194;28;20411;-75
2021/08/23 11:01:59;;;;;;;1.10;1.00;;;;;;;;;;5053525;28;20453;-75
2021/08/23 11:04:33;;;;;;;1.23;0.93;;;;;;;;;;5051988;28;20184;-75
2021/08/23 11:06:59;;;;;;;1.37;1.13;;;;;;;;;;5051504;28;20453;-75
2021/08/23 11:09:32;;;;;;;2.57;0.97;;;;;;;;;;5052423;28;20531;-75
2021/08/23 11:12:05;;;;;;;1.83;1.00;;;;;;;;;;5054162;28;20422;-75
2021/08/23 11:14:40;;;;;;;3.30;1.00;;;;;;;;;;5049761;28;20426;-75
2021/08/23 11:17:06;;;;;;;1.80;1.20;;;;;;;;;;5048882;28;20571;-75
2021/08/23 11:19:39;;;;;;;1.40;1.30;;;;;;;;;;5054123;28;20571;-75
2021/08/23 11:22:04;;;;;;;0.90;0.90;;;;;;;;;;5056837;28;20179;-75
2021/08/23 11:24:30;;;;;;;1.63;1.20;;;;;;;;;;5051957;28;20951;-75
2021/08/23 11:27:00;;;;;;;0.87;0.87;;;;;;;;;;5049604;28;20230;-75
2021/08/23 11:29:26;;;;;;;1.27;0.93;;;;;;;;;;5045148;28;20477;-75
2021/08/23 11:31:58;;;;;;;1.23;1.10;;;;;;;;;;5047788;28;20440;-75
2021/08/23 11:34:25;;;;;;;1.77;1.07;;;;;;;;;;5052428;28;20176;-75
2021/08/23 11:36:50;;;;;;;1.57;1.00;;;;;;;;;;5050475;28;20454;-75
2021/08/23 11:39:15;;;;;;;2.13;1.00;;;;;;;;;;5051251;28;20440;-75
2021/08/23 11:41:40;;;;;;;1.30;1.07;;;;;;;;;;5053083;28;20268;-74
2021/08/23 11:44:06;;;;;;;1.07;0.90;;;;;;;;;;5047605;28;20321;-75
2021/08/23 11:46:31;;;;;;;1.33;1.00;;;;;;;;;;5050061;28;20198;-76
2021/08/23 11:48:56;;;;;;;1.30;0.90;;;;;;;;;;5053360;28;20187;-76
2021/08/23 11:51:29;;;;;;;0.90;0.80;;;;;;;;;;5048844;28;20275;-75
2021/08/23 11:53:54;;;;;;;1.13;1.03;;;;;;;;;;5044185;28;20218;-75
2021/08/23 11:56:20;;;;;;;0.70;0.70;;;;;;;;;;5048042;28;20564;-75
2021/08/23 11:58:45;;;;;;;1.07;0.97;;;;;;;;;;5047302;28;20901;-76
2021/08/23 12:01:14;;;;;;;1.37;1.07;;;;;;;;;;5054369;28;20203;-75
2021/08/23 12:03:40;;;;;;;1.97;1.13;;;;;;;;;;5054135;28;20234;-75
2021/08/23 12:06:16;;;;;;;1.90;0.90;;;;;;;;;;5051719;28;20433;-75
2021/08/23 12:08:41;;;;;;;1.73;1.63;;;;;;;;;;5049670;28;20744;-75
2021/08/23 12:11:11;;;;;;;0.83;0.83;;;;;;;;;;5051539;28;20473;-75
2021/08/23 12:13:40;;;;;;;0.80;0.80;;;;;;;;;;5051852;28;20206;-75
2021/08/23 12:16:07;;;;;;;1.57;1.00;;;;;;;;;;5051498;28;20418;-75
2021/08/23 12:18:32;;;;;;;1.23;0.80;;;;;;;;;;5051778;28;20476;-76
2021/08/23 12:21:16;;;;;;;1.27;0.83;;;;;;;;;;5052985;28;20426;-78
2021/08/23 12:23:59;;;;;;;1.07;0.97;;;;;;;;;;5050520;28;20271;-76
2021/08/23 12:26:25;;;;;;;1.77;0.80;;;;;;;;;;5041460;28;20462;-75
2021/08/23 12:28:51;;;;;;;3.60;1.07;;;;;;;;;;5043722;28;20442;-77
2021/08/23 12:31:16;;;;;;;1.40;0.87;;;;;;;;;;5044989;28;20783;-77
2021/08/23 12:33:41;;;;;;;2.40;0.77;;;;;;;;;;5045743;28;20260;-77
2021/08/23 12:36:07;;;;;;;1.87;0.87;;;;;;;;;;5050079;28;20188;-77
2021/08/23 12:38:32;;;;;;;0.70;0.70;;;;;;;;;;5050114;28;20168;-77
2021/08/23 12:40:57;;;;;;;0.87;0.87;;;;;;;;;;5053107;28;20188;-76
2021/08/23 12:43:22;;;;;;;1.10;0.80;;;;;;;;;;5047702;28;20175;-76
2021/08/23 12:45:48;;;;;;;0.87;0.80;;;;;;;;;;5049204;28;20184;-76
2021/08/23 12:48:13;;;;;;;0.63;0.63;;;;;;;;;;5050404;28;20207;-76
2021/08/23 12:50:40;;;;;;;2.97;1.00;;;;;;;;;;5059700;28;20665;-76
2021/08/23 12:53:07;;;;;;;1.67;0.70;;;;;;;;;;5052252;28;20179;-76
2021/08/23 12:55:33;;;;;;;1.17;0.80;;;;;;;;;;5056696;28;20437;-76
2021/08/23 12:57:58;;;;;;;1.03;0.93;;;;;;;;;;5053688;28;20468;-76
2021/08/23 13:00:23;;;;;;;0.80;0.80;;;;;;;;;;5055010;28;20286;-76
2021/08/23 13:02:48;;;;;;;1.20;1.00;;;;;;;;;;5053315;28;20257;-76
2021/08/23 13:05:13;;;;;;;0.80;0.80;;;;;;;;;;5052929;28;20636;-76
2021/08/23 13:07:39;;;;;;;0.67;0.67;;;;;;;;;;5048905;28;20745;-76
2021/08/23 13:10:05;;;;;;;0.90;0.80;;;;;;;;;;5053614;28;20198;-76
2021/08/23 13:12:30;;;;;;;1.67;0.90;;;;;;;;;;5055054;28;20776;-76
2021/08/23 13:14:55;;;;;;;1.30;0.83;;;;;;;;;;5056014;28;20461;-76
2021/08/23 13:17:21;;;;;;;0.83;0.80;;;;;;;;;;5052306;28;20218;-77
2021/08/23 13:19:46;;;;;;;0.87;0.87;;;;;;;;;;5053479;28;20182;-76
2021/08/23 13:22:11;;;;;;;1.40;0.90;;;;;;;;;;5050970;28;20194;-76
2021/08/23 13:24:40;;;;;;;1.17;1.00;;;;;;;;;;5051005;28;20479;-76
2021/08/23 13:27:05;;;;;;;1.57;1.00;;;;;;;;;;5052113;28;20199;-76
2021/08/23 13:29:31;;;;;;;2.10;1.20;;;;;;;;;;5051721;28;20784;-76
2021/08/23 13:31:56;;;;;;;1.13;1.03;;;;;;;;;;5051787;28;20214;-76
2021/08/23 13:34:21;;;;;;;1.20;1.00;;;;;;;;;;5052863;28;20262;-76
2021/08/23 13:36:46;;;;;;;0.87;0.87;;;;;;;;;;5056351;28;20199;-76
2021/08/23 13:39:12;;;;;;;0.80;0.80;;;;;;;;;;5051994;28;20171;-76
2021/08/23 13:41:37;;;;;;;1.93;1.00;;;;;;;;;;5054975;28;20646;-76
2021/08/23 13:44:02;;;;;;;1.97;1.20;;;;;;;;;;5052290;28;20179;-76
2021/08/23 13:46:27;;;;;;;1.40;0.93;;;;;;;;;;5051347;28;20215;-76
2021/08/23 13:48:53;;;;;;;1.40;1.10;;;;;;;;;;5054239;28;20790;-76
2021/08/23 13:51:18;;;;;;;1.57;1.47;;;;;;;;;;5051286;28;20207;-76
2021/08/23 13:53:43;;;;;;;1.50;1.40;;;;;;;;;;5053518;28;20172;-75
2021/08/23 13:56:09;;;;;;;2.73;1.67;;;;;;;;;;5053737;28;20168;-76
2021/08/23 13:58:34;;;;;;;1.73;1.40;;;;;;;;;;5054677;28;20179;-76
2021/08/23 14:01:00;;;;;;;1.87;1.17;;;;;;;;;;5053091;28;20283;-76
2021/08/23 14:03:25;;;;;;;1.47;1.30;;;;;;;;;;5050364;28;20184;-76
2021/08/23 14:05:50;;;;;;;2.00;1.70;;;;;;;;;;5051166;28;20885;-76
2021/08/23 14:08:16;;;;;;;3.20;1.80;;;;;;;;;;5049989;28;21147;-76
2021/08/23 14:10:56;;;;;;;1.30;1.20;;;;;;;;;;5054626;28;20636;-76
2021/08/23 14:13:21;;;;;;;9.00;1.80;;;;;;;;;;5054593;28;20484;-75
2021/08/23 14:15:47;;;;;;;2.37;1.60;;;;;;;;;;5051637;28;20558;-76
2021/08/23 14:18:13;;;;;;;1.93;1.73;;;;;;;;;;5050354;28;20206;-76
2021/08/23 14:20:38;;;;;;;2.87;1.73;;;;;;;;;;5049238;28;20446;-76
2021/08/23 14:23:03;;;;;;;3.27;1.87;;;;;;;;;;5054210;28;20240;-76
2021/08/23 14:25:28;;;;;;;5.20;1.53;;;;;;;;;;5049904;28;20234;-76
2021/08/23 14:27:56;;;;;;;1.50;1.30;;;;;;;;;;5051493;28;20230;-76
2021/08/23 14:30:21;;;;;;;3.13;1.23;;;;;;;;;;5054358;28;20198;-75
2021/08/23 14:32:46;;;;;;;1.57;1.40;;;;;;;;;;5052125;28;20543;-77
2021/08/23 14:35:12;;;;;;;2.00;1.80;;;;;;;;;;5052743;28;20187;-76
2021/08/23 14:37:37;;;;;;;1.90;1.50;;;;;;;;;;5052211;28;20257;-76